createdAt,value
2017-08-17T00:01:07.683Z,78.21
2017-08-17T00:03:35.283Z,78.55
2017-08-17T00:06:02.923Z,78.14
2017-08-17T00:08:30.557Z,80.15
2017-08-17T00:10:58.248Z,81.50
2017-08-17T00:13:25.963Z,80.34
2017-08-17T00:15:53.957Z,78.98
2017-08-17T00:18:21.643Z,79.07
2017-08-17T00:20:49.369Z,80.14
2017-08-17T00:23:17.360Z,80.24
2017-08-17T00:25:45.128Z,80.40
2017-08-17T00:28:13.106Z,80.66
2017-08-17T00:30:41.135Z,79.75
2017-08-17T00:33:08.848Z,80.08
2017-08-17T00:35:36.577Z,80.20
2017-08-17T00:38:04.535Z,80.50
2017-08-17T00:40:32.355Z,80.71
2017-08-17T00:43:00.311Z,81.12
2017-08-17T00:45:28.338Z,82.33
2017-08-17T00:47:56.105Z,83.15
2017-08-17T00:50:24.096Z,84.30
2017-08-17T00:52:51.984Z,83.83
2017-08-17T00:55:19.828Z,83.51
2017-08-17T00:57:47.697Z,83.22
2017-08-17T01:00:15.585Z,82.31
2017-08-17T01:02:43.432Z,82.55
2017-08-17T01:05:11.296Z,83.44
2017-08-17T01:07:39.042Z,83.71
2017-08-17T01:10:07.007Z,84.16
2017-08-17T01:12:34.828Z,83.70
2017-08-17T01:15:02.782Z,84.03
2017-08-17T01:17:30.631Z,84.41
2017-08-17T01:19:58.318Z,84.94
2017-08-17T01:22:26.178Z,83.87
2017-08-17T01:24:53.843Z,83.73
2017-08-17T01:27:21.676Z,84.24
2017-08-17T01:29:49.767Z,84.65
2017-08-17T01:32:17.651Z,84.17
2017-08-17T01:34:45.500Z,84.03
2017-08-17T01:37:13.395Z,83.88
2017-08-17T01:39:41.034Z,83.54
2017-08-17T01:42:08.877Z,83.71
2017-08-17T01:44:36.647Z,84.13
2017-08-17T01:47:14.746Z,83.37
2017-08-17T01:49:42.780Z,82.64
2017-08-17T01:52:10.721Z,81.39
2017-08-17T01:54:38.693Z,81.20
2017-08-17T01:57:06.607Z,81.32
2017-08-17T01:59:34.573Z,81.38
2017-08-17T02:02:02.497Z,82.88
2017-08-17T02:04:30.364Z,82.81
2017-08-17T02:06:58.025Z,82.59
2017-08-17T02:09:25.741Z,82.38
2017-08-17T02:11:53.752Z,82.41
2017-08-17T02:14:21.450Z,82.94
2017-08-17T02:16:49.261Z,82.42
2017-08-17T02:19:18.179Z,82.33
2017-08-17T02:21:45.900Z,82.27
2017-08-17T02:24:13.618Z,81.78
2017-08-17T02:26:41.574Z,80.54
2017-08-17T02:29:09.425Z,81.94
2017-08-17T02:31:37.098Z,81.50
2017-08-17T02:34:04.972Z,80.69
2017-08-17T02:36:32.632Z,80.06
2017-08-17T02:39:00.501Z,80.62
2017-08-17T02:41:28.380Z,81.21
2017-08-17T02:43:56.240Z,81.99
2017-08-17T02:46:24.089Z,82.73
2017-08-17T02:48:52.136Z,83.46
2017-08-17T02:51:20.037Z,83.51
2017-08-17T02:53:48.096Z,82.42
2017-08-17T02:56:16.161Z,83.11
2017-08-17T02:58:43.844Z,82.71
2017-08-17T03:01:11.548Z,83.29
2017-08-17T03:03:39.536Z,83.27
2017-08-17T03:06:07.446Z,83.76
2017-08-17T03:08:35.469Z,82.92
2017-08-17T03:11:03.287Z,82.89
2017-08-17T03:13:31.158Z,82.21
2017-08-17T03:15:59.296Z,82.08
2017-08-17T03:18:27.361Z,82.00
2017-08-17T03:20:55.292Z,81.92
2017-08-17T03:23:23.291Z,81.40
2017-08-17T03:25:51.364Z,81.67
2017-08-17T03:28:19.271Z,82.72
2017-08-17T03:30:47.001Z,81.70
2017-08-17T03:33:14.990Z,81.49
2017-08-17T03:35:42.610Z,81.65
2017-08-17T03:38:10.499Z,81.75
2017-08-17T03:40:38.245Z,81.20
2017-08-17T03:43:06.085Z,80.89
2017-08-17T03:45:33.778Z,81.20
2017-08-17T03:48:01.792Z,80.85
2017-08-17T03:50:29.458Z,80.32
2017-08-17T03:52:57.176Z,81.49
2017-08-17T03:55:25.103Z,81.80
2017-08-17T03:57:52.853Z,81.54
2017-08-17T04:00:20.579Z,78.20
2017-08-17T04:02:48.585Z,74.84
2017-08-17T04:05:16.253Z,72.07
2017-08-17T04:07:43.907Z,68.72
2017-08-17T04:10:11.569Z,66.00
2017-08-17T04:12:39.290Z,63.45
2017-08-17T04:15:07.107Z,62.37
2017-08-17T04:17:34.989Z,60.14
2017-08-17T04:20:02.743Z,58.60
2017-08-17T04:22:30.705Z,57.11
2017-08-17T04:24:58.722Z,56.33
2017-08-17T04:27:26.432Z,54.09
2017-08-17T04:29:54.279Z,51.87
2017-08-17T04:32:22.172Z,50.08
2017-08-17T04:34:49.892Z,48.68
2017-08-17T04:37:17.881Z,47.70
2017-08-17T04:39:45.773Z,48.09
2017-08-17T04:42:13.615Z,46.01
2017-08-17T04:44:41.508Z,44.52
2017-08-17T04:47:09.526Z,42.95
2017-08-17T04:49:37.346Z,43.04
2017-08-17T04:52:11.864Z,42.43
2017-08-17T04:54:39.523Z,43.60
2017-08-17T04:57:29.718Z,42.46
2017-08-17T04:59:57.560Z,42.85
2017-08-17T05:02:25.454Z,41.13
2017-08-17T05:04:53.524Z,39.90
2017-08-17T05:07:21.361Z,39.39
2017-08-17T05:09:49.259Z,43.31
2017-08-17T05:12:17.196Z,41.24
2017-08-17T05:14:45.115Z,38.66
2017-08-17T05:17:13.063Z,37.93
2017-08-17T05:19:41.135Z,40.29
2017-08-17T05:22:08.795Z,38.00
2017-08-17T05:24:36.630Z,37.08
2017-08-17T05:27:04.598Z,37.67
2017-08-17T05:29:32.629Z,37.04
2017-08-17T05:32:00.264Z,36.29
2017-08-17T05:34:28.299Z,34.88
2017-08-17T05:36:56.003Z,36.01
2017-08-17T05:39:23.709Z,37.05
2017-08-17T05:41:51.732Z,37.35
2017-08-17T05:44:19.570Z,35.36
2017-08-17T05:46:47.469Z,34.17
2017-08-17T05:49:15.333Z,36.02
2017-08-17T05:51:43.069Z,36.63
2017-08-17T05:54:11.038Z,36.83
2017-08-17T05:56:38.722Z,37.72
2017-08-17T05:59:06.700Z,35.33
2017-08-17T06:01:34.562Z,33.21
2017-08-17T06:04:02.382Z,32.70
2017-08-17T06:06:30.349Z,32.12
2017-08-17T06:08:58.171Z,32.64
2017-08-17T06:11:25.986Z,32.42
2017-08-17T06:13:53.608Z,31.95
2017-08-17T06:16:21.346Z,31.69
2017-08-17T06:18:49.109Z,30.73
2017-08-17T06:21:16.832Z,34.18
2017-08-17T06:23:44.721Z,32.07
2017-08-17T06:26:12.401Z,29.88
2017-08-17T06:28:40.024Z,29.11
2017-08-17T06:31:07.737Z,28.67
2017-08-17T06:33:35.416Z,28.87
2017-08-17T06:36:03.017Z,29.33
2017-08-17T06:38:30.674Z,30.11
2017-08-17T06:40:58.420Z,30.64
2017-08-17T06:43:26.049Z,29.59
2017-08-17T06:45:53.653Z,28.16
2017-08-17T06:48:21.310Z,28.66
2017-08-17T06:50:48.935Z,28.19
2017-08-17T06:53:16.595Z,31.17
2017-08-17T06:55:44.276Z,28.61
2017-08-17T06:58:11.906Z,29.05
2017-08-17T07:00:39.566Z,26.60
2017-08-17T07:03:07.232Z,28.55
2017-08-17T07:05:34.864Z,28.17
2017-08-17T07:08:02.480Z,28.25
2017-08-17T07:10:30.159Z,28.90
2017-08-17T07:12:57.790Z,26.51
2017-08-17T07:15:25.372Z,28.46
2017-08-17T07:17:53.607Z,27.84
2017-08-17T07:20:21.206Z,27.81
2017-08-17T07:22:49.038Z,29.39
2017-08-17T07:25:17.021Z,28.70
2017-08-17T07:27:44.747Z,26.14
2017-08-17T07:30:12.761Z,26.76
2017-08-17T07:32:40.558Z,24.87
2017-08-17T07:35:08.491Z,23.92
2017-08-17T07:37:36.315Z,26.16
2017-08-17T07:40:04.000Z,25.10
2017-08-17T07:42:31.728Z,26.59
2017-08-17T07:44:59.542Z,26.73
2017-08-17T07:47:27.208Z,25.17
2017-08-17T07:49:54.929Z,26.17
2017-08-17T07:52:22.943Z,24.75
2017-08-17T07:54:50.807Z,25.65
2017-08-17T07:57:18.534Z,24.68
2017-08-17T07:59:46.522Z,28.83
2017-08-17T08:02:14.518Z,29.19
2017-08-17T08:04:42.231Z,26.40
2017-08-17T08:07:10.145Z,25.33
2017-08-17T08:09:38.216Z,23.85
2017-08-17T08:12:05.931Z,25.46
2017-08-17T08:14:33.900Z,27.60
2017-08-17T08:17:01.969Z,23.96
2017-08-17T08:19:29.684Z,24.62
2017-08-17T08:21:57.404Z,23.81
2017-08-17T08:24:25.272Z,24.06
2017-08-17T08:26:53.285Z,23.55
2017-08-17T08:29:21.130Z,26.11
2017-08-17T08:31:49.020Z,26.33
2017-08-17T08:34:17.089Z,26.57
2017-08-17T08:36:44.937Z,27.49
2017-08-17T08:39:12.618Z,25.38
2017-08-17T08:41:40.282Z,28.89
2017-08-17T08:44:07.943Z,25.99
2017-08-17T08:46:35.818Z,23.94
2017-08-17T08:49:03.826Z,26.34
2017-08-17T08:51:31.735Z,25.34
2017-08-17T08:53:59.780Z,23.88
2017-08-17T08:56:27.489Z,23.22
2017-08-17T08:58:55.319Z,23.08
2017-08-17T09:01:23.060Z,26.36
2017-08-17T09:03:50.977Z,24.38
2017-08-17T09:06:18.950Z,23.92
2017-08-17T09:08:47.024Z,25.59
2017-08-17T09:11:14.878Z,24.83
2017-08-17T09:13:42.596Z,24.98
2017-08-17T09:16:10.487Z,23.82
2017-08-17T09:18:38.476Z,26.54
2017-08-17T09:21:06.197Z,24.42
2017-08-17T09:23:34.225Z,23.91
2017-08-17T09:26:02.055Z,22.65
2017-08-17T09:28:29.741Z,24.49
2017-08-17T09:30:57.410Z,22.50
2017-08-17T09:33:25.257Z,24.47
2017-08-17T09:35:53.000Z,24.46
2017-08-17T09:38:21.016Z,24.41
2017-08-17T09:40:48.737Z,25.39
2017-08-17T09:43:16.701Z,23.50
2017-08-17T09:45:44.521Z,24.87
2017-08-17T09:48:12.484Z,24.31
2017-08-17T09:50:40.205Z,24.54
2017-08-17T09:53:08.422Z,23.76
2017-08-17T09:55:36.262Z,24.52
2017-08-17T09:58:04.007Z,26.04
2017-08-17T10:00:31.974Z,23.38
2017-08-17T10:02:59.685Z,23.42
2017-08-17T10:05:27.733Z,22.09
2017-08-17T10:07:55.361Z,22.35
2017-08-17T10:10:22.915Z,23.26
2017-08-17T10:12:50.482Z,24.12
2017-08-17T10:15:18.193Z,24.11
2017-08-17T10:17:45.770Z,19.24
2017-08-17T10:20:13.364Z,18.93
2017-08-17T10:22:40.966Z,20.10
2017-08-17T10:25:08.531Z,20.15
2017-08-17T10:27:36.094Z,20.73
2017-08-17T10:30:03.738Z,20.00
2017-08-17T10:32:31.418Z,19.46
2017-08-17T10:34:58.980Z,19.99
2017-08-17T10:37:26.596Z,19.17
2017-08-17T10:39:54.163Z,19.46
2017-08-17T10:42:21.825Z,22.26
2017-08-17T10:44:49.412Z,19.93
2017-08-17T10:47:17.024Z,19.58
2017-08-17T10:49:44.586Z,18.13
2017-08-17T10:52:12.194Z,19.36
2017-08-17T10:54:39.747Z,21.43
2017-08-17T10:57:07.311Z,19.92
2017-08-17T10:59:34.915Z,19.84
2017-08-17T11:02:02.483Z,17.39
2017-08-17T11:04:30.047Z,17.55
2017-08-17T11:06:57.671Z,16.97
2017-08-17T11:09:25.244Z,20.84
2017-08-17T11:11:52.820Z,20.69
2017-08-17T11:14:20.452Z,20.55
2017-08-17T11:16:48.006Z,19.99
2017-08-17T11:19:15.579Z,18.26
2017-08-17T11:21:43.199Z,19.57
2017-08-17T11:24:10.748Z,18.46
2017-08-17T11:26:38.361Z,17.65
2017-08-17T11:29:05.975Z,17.00
2017-08-17T11:31:33.540Z,16.68
2017-08-17T11:34:01.112Z,17.99
2017-08-17T11:36:28.721Z,18.54
2017-08-17T11:38:56.277Z,16.87
2017-08-17T11:41:23.937Z,16.95
2017-08-17T11:43:51.551Z,16.92
2017-08-17T11:46:19.113Z,17.71
2017-08-17T11:48:46.145Z,17.63
2017-08-17T11:51:13.203Z,18.39
2017-08-17T11:53:40.815Z,19.93
2017-08-17T11:56:08.384Z,18.49
2017-08-17T11:58:36.024Z,17.78
2017-08-17T12:01:03.598Z,17.63
2017-08-17T12:03:31.171Z,19.01
2017-08-17T12:05:58.815Z,18.94
2017-08-17T12:08:26.390Z,18.67
2017-08-17T12:10:53.937Z,17.32
2017-08-17T12:13:21.542Z,16.22
2017-08-17T12:15:49.106Z,16.20
2017-08-17T12:18:16.658Z,17.96
2017-08-17T12:20:44.270Z,18.54
2017-08-17T12:23:11.827Z,17.96
2017-08-17T12:25:39.386Z,17.83
2017-08-17T12:28:07.057Z,16.83
2017-08-17T12:30:34.624Z,16.68
2017-08-17T12:33:02.223Z,18.01
2017-08-17T12:35:29.890Z,17.21
2017-08-17T12:37:57.439Z,16.27
2017-08-17T12:40:25.024Z,16.39
2017-08-17T12:42:52.648Z,17.12
2017-08-17T12:45:20.222Z,18.30
2017-08-17T12:47:47.782Z,18.19
2017-08-17T12:50:15.377Z,18.13
2017-08-17T12:52:42.910Z,18.71
2017-08-17T12:55:10.483Z,18.26
2017-08-17T12:57:38.102Z,18.87
2017-08-17T13:00:05.651Z,19.08
2017-08-17T13:02:33.197Z,18.79
2017-08-17T13:05:00.821Z,19.30
2017-08-17T13:07:28.425Z,20.70
2017-08-17T13:09:55.970Z,22.38
2017-08-17T13:12:23.574Z,21.12
2017-08-17T13:14:51.143Z,22.05
2017-08-17T13:17:18.699Z,23.70
2017-08-17T13:19:46.340Z,23.32
2017-08-17T13:22:13.894Z,22.97
2017-08-17T13:24:41.459Z,23.08
2017-08-17T13:27:09.286Z,23.44
2017-08-17T13:29:36.824Z,23.68
2017-08-17T13:32:04.364Z,23.15
2017-08-17T13:34:31.980Z,24.48
2017-08-17T13:36:59.537Z,23.29
2017-08-17T13:39:27.094Z,24.46
2017-08-17T13:41:54.709Z,25.57
2017-08-17T13:44:22.280Z,24.98
2017-08-17T13:46:50.016Z,25.52
2017-08-17T13:49:17.644Z,26.34
2017-08-17T13:51:45.214Z,24.75
2017-08-17T13:54:12.784Z,25.28
2017-08-17T13:56:40.393Z,25.89
2017-08-17T13:59:07.945Z,25.85
2017-08-17T14:01:35.507Z,24.99
2017-08-17T14:04:03.260Z,25.16
2017-08-17T14:06:30.805Z,24.77
2017-08-17T14:08:58.374Z,25.25
2017-08-17T14:11:25.986Z,25.45
2017-08-17T14:13:53.548Z,25.00
2017-08-17T14:16:21.100Z,25.25
2017-08-17T14:18:48.721Z,25.43
2017-08-17T14:21:16.304Z,24.96
2017-08-17T14:23:43.866Z,25.33
2017-08-17T14:26:11.473Z,26.38
2017-08-17T14:28:39.034Z,27.72
2017-08-17T14:31:06.594Z,27.74
2017-08-17T14:33:34.201Z,27.00
2017-08-17T14:36:01.753Z,26.77
2017-08-17T14:38:29.310Z,26.86
2017-08-17T14:40:56.938Z,27.13
2017-08-17T14:43:24.508Z,27.47
2017-08-17T14:45:52.063Z,27.53
2017-08-17T14:48:19.657Z,27.19
2017-08-17T14:50:47.219Z,26.78
2017-08-17T14:53:14.776Z,25.69
2017-08-17T14:55:42.391Z,27.22
2017-08-17T14:58:09.948Z,25.83
2017-08-17T15:00:37.519Z,25.75
2017-08-17T15:03:05.139Z,24.83
2017-08-17T15:05:32.713Z,24.61
2017-08-17T15:08:00.411Z,24.71
2017-08-17T15:10:28.081Z,24.27
2017-08-17T15:12:55.652Z,24.59
2017-08-17T15:15:23.237Z,24.00
2017-08-17T15:17:50.849Z,23.84
2017-08-17T15:20:18.383Z,23.55
2017-08-17T15:22:45.936Z,23.33
2017-08-17T15:25:13.559Z,23.80
2017-08-17T15:27:41.117Z,23.53
2017-08-17T15:30:08.731Z,23.40
2017-08-17T15:32:36.369Z,23.24
2017-08-17T15:35:04.033Z,23.43
2017-08-17T15:37:31.595Z,24.50
2017-08-17T15:39:59.222Z,24.08
2017-08-17T15:42:26.812Z,24.23
2017-08-17T15:44:54.362Z,24.26
2017-08-17T15:47:21.970Z,24.65
2017-08-17T15:49:49.520Z,24.54
2017-08-17T15:52:17.078Z,24.62
2017-08-17T15:54:44.706Z,25.02
2017-08-17T15:57:12.457Z,25.09
2017-08-17T15:59:40.079Z,25.64
2017-08-17T16:02:07.797Z,27.14
2017-08-17T16:04:35.419Z,25.86
2017-08-17T16:07:03.038Z,26.07
2017-08-17T16:09:30.707Z,26.34
2017-08-17T16:11:58.328Z,26.59
2017-08-17T16:14:25.920Z,26.49
2017-08-17T16:16:53.569Z,26.47
2017-08-17T16:19:21.168Z,28.15
2017-08-17T16:21:48.782Z,27.06
2017-08-17T16:24:16.449Z,27.17
2017-08-17T16:26:44.043Z,27.05
2017-08-17T16:29:11.655Z,28.59
2017-08-17T16:31:39.332Z,27.36
2017-08-17T16:34:06.957Z,26.71
2017-08-17T16:36:34.590Z,28.99
2017-08-17T16:39:02.247Z,27.95
2017-08-17T16:41:29.897Z,31.89
2017-08-17T16:43:57.503Z,32.66
2017-08-17T16:46:25.172Z,35.12
2017-08-17T16:48:52.791Z,32.24
2017-08-17T16:51:20.397Z,35.04
2017-08-17T16:53:48.059Z,38.93
2017-08-17T16:56:15.671Z,40.73
2017-08-17T16:58:43.258Z,41.62
2017-08-17T17:01:10.935Z,42.66
2017-08-17T17:03:38.595Z,45.98
2017-08-17T17:06:06.889Z,45.25
2017-08-17T17:08:34.930Z,40.83
2017-08-17T17:11:02.680Z,43.43
2017-08-17T17:13:30.333Z,45.97
2017-08-17T17:15:58.039Z,45.09
2017-08-17T17:18:25.711Z,44.92
2017-08-17T17:20:53.347Z,43.32
2017-08-17T17:23:21.025Z,45.09
2017-08-17T17:25:48.637Z,44.21
2017-08-17T17:28:16.259Z,44.31
2017-08-17T17:30:43.923Z,44.38
2017-08-17T17:33:11.527Z,46.67
2017-08-17T17:35:39.111Z,45.85
2017-08-17T17:38:06.735Z,44.15
2017-08-17T17:40:34.348Z,46.59
2017-08-17T17:43:01.968Z,48.42
2017-08-17T17:45:29.756Z,47.68
2017-08-17T17:47:57.379Z,51.09
2017-08-17T17:50:25.000Z,51.29
2017-08-17T17:52:52.665Z,48.01
2017-08-17T17:55:20.275Z,51.73
2017-08-17T17:57:47.908Z,51.04
2017-08-17T18:00:15.632Z,49.77
2017-08-17T18:02:43.251Z,50.85
2017-08-17T18:05:10.862Z,49.77
2017-08-17T18:07:38.521Z,52.57
2017-08-17T18:10:06.148Z,50.44
2017-08-17T18:12:33.753Z,51.71
2017-08-17T18:15:01.406Z,51.28
2017-08-17T18:17:29.347Z,50.28
2017-08-17T18:19:56.979Z,52.84
2017-08-17T18:22:24.914Z,52.99
2017-08-17T18:24:52.550Z,50.57
2017-08-17T18:27:20.335Z,49.91
2017-08-17T18:29:48.021Z,51.09
2017-08-17T18:32:15.640Z,52.73
2017-08-17T18:34:43.341Z,50.10
2017-08-17T18:37:11.114Z,51.66
2017-08-17T18:39:38.754Z,51.93
2017-08-17T18:42:06.596Z,50.78
2017-08-17T18:44:34.721Z,48.38
2017-08-17T18:47:02.564Z,48.38
2017-08-17T18:49:30.454Z,49.03
2017-08-17T18:51:58.205Z,48.81
2017-08-17T18:54:25.978Z,49.21
2017-08-17T18:56:53.699Z,49.35
2017-08-17T18:59:21.433Z,48.44
2017-08-17T19:01:49.208Z,48.77
2017-08-17T19:04:16.845Z,48.91
2017-08-17T19:06:44.520Z,52.82
2017-08-17T19:09:12.206Z,51.74
2017-08-17T19:11:39.869Z,50.02
2017-08-17T19:14:07.525Z,53.90
2017-08-17T19:16:35.211Z,50.89
2017-08-17T19:19:02.837Z,50.31
2017-08-17T19:21:30.606Z,50.04
2017-08-17T19:23:58.203Z,50.20
2017-08-17T19:26:25.838Z,51.93
2017-08-17T19:28:53.588Z,54.37
2017-08-17T19:31:21.250Z,55.27
2017-08-17T19:33:48.864Z,56.78
2017-08-17T19:36:16.546Z,55.83
2017-08-17T19:38:44.173Z,55.28
2017-08-17T19:41:11.804Z,54.50
2017-08-17T19:43:39.501Z,57.29
2017-08-17T19:46:07.150Z,56.29
2017-08-17T19:48:34.976Z,56.78
2017-08-17T19:51:02.780Z,57.28
2017-08-17T19:53:30.376Z,57.10
2017-08-17T19:55:57.990Z,56.36
2017-08-17T19:58:25.681Z,57.44
2017-08-17T20:00:53.308Z,58.67
2017-08-17T20:03:20.944Z,58.22
2017-08-17T20:05:48.647Z,59.80
2017-08-17T20:08:16.249Z,57.04
2017-08-17T20:10:43.841Z,58.51
2017-08-17T20:13:11.485Z,57.82
2017-08-17T20:15:39.104Z,57.53
2017-08-17T20:18:07.033Z,58.53
2017-08-17T20:20:34.710Z,61.80
2017-08-17T20:23:02.388Z,60.76
2017-08-17T20:25:30.022Z,59.53
2017-08-17T20:27:57.703Z,58.94
2017-08-17T20:30:25.359Z,61.96
2017-08-17T20:32:52.983Z,57.79
2017-08-17T20:35:20.637Z,58.90
2017-08-17T20:37:48.251Z,59.92
2017-08-17T20:40:15.860Z,60.19
2017-08-17T20:42:43.572Z,65.07
2017-08-17T20:45:11.196Z,65.05
2017-08-17T20:47:38.807Z,63.18
2017-08-17T20:50:06.469Z,62.51
2017-08-17T20:52:34.140Z,62.57
2017-08-17T20:55:01.761Z,64.06
2017-08-17T20:57:29.422Z,63.31
2017-08-17T20:59:57.036Z,63.79
2017-08-17T21:02:24.648Z,63.59
2017-08-17T21:04:52.384Z,65.23
2017-08-17T21:07:19.991Z,64.82
2017-08-17T21:09:47.607Z,64.77
2017-08-17T21:12:15.291Z,64.57
2017-08-17T21:14:42.907Z,65.14
2017-08-17T21:17:10.539Z,66.27
2017-08-17T21:19:38.213Z,66.73
2017-08-17T21:22:05.832Z,67.58
2017-08-17T21:24:33.434Z,67.51
2017-08-17T21:27:01.112Z,68.69
2017-08-17T21:29:28.734Z,67.59
2017-08-17T21:31:56.341Z,67.02
2017-08-17T21:34:24.049Z,66.58
2017-08-17T21:36:51.658Z,70.27
2017-08-17T21:39:19.269Z,68.70
2017-08-17T21:41:46.941Z,68.35
2017-08-17T21:44:14.542Z,68.26
2017-08-17T21:46:42.186Z,70.81
2017-08-17T21:49:09.852Z,70.30
2017-08-17T21:51:37.476Z,70.58
2017-08-17T21:54:05.078Z,71.07
2017-08-17T21:56:32.749Z,72.20
2017-08-17T21:59:00.368Z,72.39
2017-08-17T22:01:27.972Z,71.42
2017-08-17T22:03:55.644Z,72.10
2017-08-17T22:06:23.294Z,71.99
2017-08-17T22:08:50.904Z,73.71
2017-08-17T22:11:18.644Z,75.16
2017-08-17T22:13:46.253Z,75.09
2017-08-17T22:16:13.858Z,75.76
2017-08-17T22:18:41.529Z,72.95
2017-08-17T22:21:09.148Z,73.89
2017-08-17T22:23:36.764Z,74.69
2017-08-17T22:26:04.426Z,75.92
2017-08-17T22:28:32.033Z,75.74
2017-08-17T22:30:59.647Z,76.09
2017-08-17T22:33:27.310Z,75.42
2017-08-17T22:35:54.927Z,75.73
2017-08-17T22:38:22.534Z,74.99
2017-08-17T22:40:50.212Z,74.43
2017-08-17T22:43:17.821Z,75.20
2017-08-17T22:45:45.434Z,76.05
2017-08-17T22:48:13.104Z,75.21
2017-08-17T22:50:40.701Z,75.78
2017-08-17T22:53:08.310Z,75.91
2017-08-17T22:55:35.982Z,74.50
2017-08-17T22:58:03.594Z,75.86
2017-08-17T23:00:31.215Z,73.98
2017-08-17T23:02:58.878Z,76.11
2017-08-17T23:05:26.501Z,76.89
2017-08-17T23:07:54.145Z,77.24
2017-08-17T23:10:21.820Z,77.38
2017-08-17T23:12:49.457Z,77.81
2017-08-17T23:15:17.056Z,78.18
2017-08-17T23:17:44.752Z,78.10
2017-08-17T23:20:12.363Z,78.57
2017-08-17T23:22:39.983Z,79.50
2017-08-17T23:25:07.689Z,80.29
2017-08-17T23:27:35.298Z,79.72
2017-08-17T23:30:02.934Z,79.94
2017-08-17T23:32:30.615Z,80.65
2017-08-17T23:34:58.227Z,81.72
2017-08-17T23:37:25.839Z,81.73
2017-08-17T23:39:53.512Z,81.47
2017-08-17T23:42:21.116Z,81.41
2017-08-17T23:44:48.745Z,81.79
2017-08-17T23:47:16.414Z,82.41
2017-08-17T23:49:44.033Z,81.24
2017-08-17T23:52:11.677Z,80.89
2017-08-17T23:54:39.376Z,81.75
2017-08-17T23:57:06.977Z,82.52
2017-08-17T23:59:34.599Z,82.82
